createdAt,value
2018-12-19T00:00:58.840Z,42.43
2018-12-19T00:03:26.288Z,47.40
2018-12-19T00:05:53.716Z,45.43
2018-12-19T00:08:21.216Z,43.50
2018-12-19T00:10:51.304Z,40.57
2018-12-19T00:13:20.464Z,38.60
2018-12-19T00:15:47.893Z,39.33
2018-12-19T00:18:15.503Z,41.30
2018-12-19T00:20:44.260Z,40.27
2018-12-19T00:23:11.753Z,45.27
2018-12-19T00:25:39.172Z,45.83
2018-12-19T00:28:09.108Z,42.63
2018-12-19T00:30:36.952Z,40.30
2018-12-19T00:33:04.415Z,46.27
2018-12-19T00:35:31.875Z,48.43
2018-12-19T00:37:59.329Z,47.07
2018-12-19T00:40:27.023Z,49.80
2018-12-19T00:42:54.562Z,46.33
2018-12-19T00:45:22.085Z,48.93
2018-12-19T00:47:49.502Z,45.10
2018-12-19T00:50:16.921Z,49.13
2018-12-19T00:52:44.994Z,42.60
2018-12-19T00:55:12.430Z,46.97
2018-12-19T00:57:40.600Z,57.97
2018-12-19T01:00:09.350Z,57.77
2018-12-19T01:02:36.772Z,53.50
2018-12-19T01:05:04.698Z,55.03
2018-12-19T01:07:32.189Z,48.30
2018-12-19T01:09:59.613Z,51.57
2018-12-19T01:12:27.028Z,44.07
2018-12-19T01:14:54.866Z,46.43
2018-12-19T01:17:22.824Z,51.57
2018-12-19T01:19:50.249Z,53.37
2018-12-19T01:22:17.662Z,51.57
2018-12-19T01:24:45.096Z,51.50
2018-12-19T01:27:12.519Z,49.07
2018-12-19T01:29:40.048Z,51.70
2018-12-19T01:32:07.530Z,49.20
2018-12-19T01:34:34.956Z,47.10
2018-12-19T01:37:02.387Z,52.50
2018-12-19T01:39:30.441Z,46.97
2018-12-19T01:41:57.920Z,45.70
2018-12-19T01:44:25.345Z,50.90
2018-12-19T01:46:52.802Z,50.20
2018-12-19T01:49:20.225Z,42.47
2018-12-19T01:51:47.726Z,42.77
2018-12-19T01:54:15.224Z,44.10
2018-12-19T01:56:42.644Z,45.40
2018-12-19T01:59:10.076Z,45.17
2018-12-19T02:01:37.589Z,46.27
2018-12-19T02:04:05.556Z,48.50
2018-12-19T02:06:32.972Z,51.93
2018-12-19T02:09:00.616Z,48.37
2018-12-19T02:11:28.108Z,40.57
2018-12-19T02:13:55.536Z,50.13
2018-12-19T02:16:23.752Z,40.40
2018-12-19T02:18:51.538Z,40.90
2018-12-19T02:21:18.976Z,45.20
2018-12-19T02:23:46.604Z,50.40
2018-12-19T02:26:14.034Z,42.53
2018-12-19T02:28:41.480Z,45.93
2018-12-19T02:31:08.911Z,42.13
2018-12-19T02:33:37.453Z,43.60
2018-12-19T02:36:04.920Z,45.43
2018-12-19T02:38:32.348Z,40.70
2018-12-19T02:40:59.768Z,45.03
2018-12-19T02:43:27.259Z,42.53
2018-12-19T02:45:54.685Z,41.93
2018-12-19T02:48:22.425Z,44.83
2018-12-19T02:50:49.825Z,42.40
2018-12-19T02:53:17.588Z,38.30
2018-12-19T02:55:44.977Z,48.03
2018-12-19T02:58:12.520Z,45.33
2018-12-19T03:00:39.947Z,45.03
2018-12-19T03:03:07.689Z,47.30
2018-12-19T03:05:35.162Z,42.30
2018-12-19T03:08:02.709Z,47.50
2018-12-19T03:10:30.210Z,48.40
2018-12-19T03:12:57.705Z,45.13
2018-12-19T03:15:25.124Z,44.20
2018-12-19T03:17:53.201Z,49.67
2018-12-19T03:20:21.052Z,44.27
2018-12-19T03:22:57.723Z,48.73
2018-12-19T03:25:25.212Z,44.97
2018-12-19T03:27:52.679Z,38.90
2018-12-19T03:30:20.111Z,49.13
2018-12-19T03:32:47.624Z,43.63
2018-12-19T03:35:15.460Z,42.83
2018-12-19T03:37:42.900Z,39.73
2018-12-19T03:40:10.753Z,46.47
2018-12-19T03:42:38.165Z,38.80
2018-12-19T03:45:06.864Z,46.57
2018-12-19T03:47:34.497Z,44.80
2018-12-19T03:50:01.997Z,39.97
2018-12-19T03:52:29.421Z,42.43
2018-12-19T03:54:56.850Z,48.40
2018-12-19T03:57:24.827Z,44.70
2018-12-19T03:59:52.557Z,43.37
2018-12-19T04:02:20.043Z,41.30
2018-12-19T04:04:47.460Z,43.63
2018-12-19T04:07:14.909Z,41.83
2018-12-19T04:09:42.365Z,36.63
2018-12-19T04:12:09.789Z,40.50
2018-12-19T04:14:37.313Z,35.63
2018-12-19T04:17:04.717Z,39.87
2018-12-19T04:19:32.668Z,36.90
2018-12-19T04:22:00.179Z,42.70
2018-12-19T04:24:28.113Z,35.50
2018-12-19T04:26:55.532Z,39.23
2018-12-19T04:29:22.967Z,42.00
2018-12-19T04:31:50.408Z,35.13
2018-12-19T04:34:18.244Z,39.13
2018-12-19T04:36:45.664Z,43.93
2018-12-19T04:39:13.101Z,43.00
2018-12-19T04:41:40.641Z,44.03
2018-12-19T04:44:08.124Z,42.30
2018-12-19T04:46:35.553Z,41.30
2018-12-19T04:49:03.493Z,43.23
2018-12-19T04:51:30.933Z,45.80
2018-12-19T04:53:58.431Z,42.73
2018-12-19T04:56:25.851Z,44.40
2018-12-19T04:58:53.276Z,36.97
2018-12-19T05:01:20.708Z,37.97
2018-12-19T05:03:48.164Z,39.17
2018-12-19T05:06:15.591Z,37.60
2018-12-19T05:08:43.705Z,37.23
2018-12-19T05:11:11.225Z,39.23
2018-12-19T05:13:38.675Z,38.80
2018-12-19T05:16:06.097Z,36.03
2018-12-19T05:18:35.659Z,39.83
2018-12-19T05:21:03.221Z,42.87
2018-12-19T05:23:31.041Z,44.97
2018-12-19T05:25:58.477Z,42.20
2018-12-19T05:28:25.972Z,50.83
2018-12-19T05:30:53.396Z,46.60
2018-12-19T05:33:20.832Z,41.03
2018-12-19T05:35:48.261Z,41.13
2018-12-19T05:38:15.676Z,42.20
2018-12-19T05:40:43.098Z,40.17
2018-12-19T05:43:10.524Z,44.80
2018-12-19T05:45:37.945Z,42.20
2018-12-19T05:48:05.364Z,41.27
2018-12-19T05:50:32.790Z,49.07
2018-12-19T05:53:00.229Z,44.87
2018-12-19T05:55:27.651Z,46.13
2018-12-19T05:57:55.078Z,45.37
2018-12-19T06:00:22.500Z,48.37
2018-12-19T06:02:50.330Z,40.90
2018-12-19T06:05:17.792Z,41.97
2018-12-19T06:07:45.232Z,43.23
2018-12-19T06:10:12.652Z,52.13
2018-12-19T06:12:40.692Z,43.73
2018-12-19T06:15:08.184Z,43.77
2018-12-19T06:17:35.601Z,43.23
2018-12-19T06:20:03.070Z,45.90
2018-12-19T06:22:30.496Z,44.47
2018-12-19T06:24:57.952Z,40.00
2018-12-19T06:27:25.461Z,46.77
2018-12-19T06:29:52.981Z,47.23
2018-12-19T06:32:20.387Z,44.60
2018-12-19T06:34:47.808Z,46.93
2018-12-19T06:37:15.238Z,39.03
2018-12-19T06:39:42.653Z,46.70
2018-12-19T06:42:10.117Z,42.43
2018-12-19T06:44:37.549Z,41.07
2018-12-19T06:47:05.044Z,39.07
2018-12-19T06:49:33.008Z,37.97
2018-12-19T06:52:01.762Z,41.83
2018-12-19T06:54:29.832Z,42.03
2018-12-19T06:56:57.261Z,39.93
2018-12-19T06:59:24.700Z,38.60
2018-12-19T07:01:52.117Z,36.70
2018-12-19T07:04:19.540Z,34.20
2018-12-19T07:06:47.012Z,34.03
2018-12-19T07:09:15.532Z,32.10
2018-12-19T07:11:43.561Z,34.50
2018-12-19T07:14:11.214Z,29.87
2018-12-19T07:16:43.387Z,30.30
2018-12-19T07:19:08.632Z,31.30
2018-12-19T07:21:36.508Z,34.20
2018-12-19T07:24:04.790Z,34.70
2018-12-19T07:26:32.200Z,34.27
2018-12-19T07:28:59.624Z,31.90
2018-12-19T07:31:27.182Z,38.63
2018-12-19T07:33:54.599Z,34.53
2018-12-19T07:36:22.111Z,31.07
2018-12-19T07:38:49.633Z,35.07
2018-12-19T07:41:17.054Z,40.27
2018-12-19T07:43:44.548Z,35.40
2018-12-19T07:46:12.488Z,31.20
2018-12-19T07:48:40.056Z,26.53
2018-12-19T07:51:08.248Z,31.47
2018-12-19T07:53:35.671Z,33.67
2018-12-19T07:56:03.485Z,31.13
2018-12-19T07:58:31.805Z,31.87
2018-12-19T08:00:59.196Z,33.73
2018-12-19T08:03:26.652Z,29.23
2018-12-19T08:05:54.607Z,28.27
2018-12-19T08:08:22.111Z,28.20
2018-12-19T08:10:52.267Z,26.27
2018-12-19T08:13:18.984Z,32.90
2018-12-19T08:15:46.455Z,32.23
2018-12-19T08:18:13.948Z,25.83
2018-12-19T08:20:42.309Z,26.23
2018-12-19T08:23:09.820Z,25.50
2018-12-19T08:25:37.240Z,24.37
2018-12-19T08:28:04.704Z,23.97
2018-12-19T08:30:32.265Z,27.93
2018-12-19T08:32:59.683Z,26.00
2018-12-19T08:35:27.153Z,29.20
2018-12-19T08:37:54.696Z,24.50
2018-12-19T08:40:22.110Z,27.50
2018-12-19T08:42:49.527Z,28.17
2018-12-19T08:45:17.500Z,24.27
2018-12-19T08:47:44.961Z,23.03
2018-12-19T08:50:12.452Z,23.03
2018-12-19T08:52:40.433Z,24.93
2018-12-19T08:55:08.813Z,22.80
2018-12-19T08:57:36.279Z,23.20
2018-12-19T09:00:08.144Z,22.10
2018-12-19T09:02:36.154Z,23.40
2018-12-19T09:05:05.259Z,23.67
2018-12-19T09:07:33.316Z,21.70
2018-12-19T09:10:00.776Z,21.53
2018-12-19T09:12:28.220Z,21.37
2018-12-19T09:14:57.598Z,21.03
2018-12-19T09:20:17.925Z,21.97
2018-12-19T09:22:45.347Z,22.20
2018-12-19T09:25:13.035Z,22.70
2018-12-19T09:27:40.453Z,18.73
2018-12-19T09:30:10.560Z,22.83
2018-12-19T09:32:38.137Z,16.93
2018-12-19T09:35:05.672Z,17.97
2018-12-19T09:37:33.084Z,18.73
2018-12-19T09:40:00.584Z,17.07
2018-12-19T09:42:28.010Z,19.27
2018-12-19T09:44:55.520Z,17.70
2018-12-19T09:47:22.944Z,16.87
2018-12-19T09:49:51.354Z,15.30
2018-12-19T09:52:18.760Z,16.80
2018-12-19T09:54:46.186Z,17.47
2018-12-19T09:57:13.617Z,17.90
2018-12-19T09:59:41.032Z,21.97
2018-12-19T10:02:09.089Z,22.17
2018-12-19T10:04:43.005Z,18.40
2018-12-19T10:10:04.616Z,19.60
2018-12-19T10:12:32.059Z,17.63
2018-12-19T10:14:59.482Z,19.80
2018-12-19T10:17:28.715Z,20.37
2018-12-19T10:19:56.120Z,18.60
2018-12-19T10:22:29.241Z,21.10
2018-12-19T10:25:02.561Z,21.20
2018-12-19T10:27:30.780Z,20.07
2018-12-19T10:29:58.207Z,20.07
2018-12-19T10:32:27.653Z,18.93
2018-12-19T10:34:55.076Z,20.03
2018-12-19T10:37:22.499Z,21.33
2018-12-19T10:39:50.550Z,19.43
2018-12-19T10:42:18.606Z,17.57
2018-12-19T10:44:46.042Z,19.37
2018-12-19T10:47:13.513Z,16.77
2018-12-19T10:49:41.048Z,19.37
2018-12-19T10:52:08.477Z,16.53
2018-12-19T10:54:35.900Z,19.40
2018-12-19T10:57:05.756Z,17.80
2018-12-19T10:59:33.186Z,16.63
2018-12-19T11:02:01.162Z,16.67
2018-12-19T11:04:29.053Z,17.00
2018-12-19T11:06:56.499Z,16.37
2018-12-19T11:09:23.933Z,15.97
2018-12-19T11:11:51.912Z,14.07
2018-12-19T11:14:19.345Z,15.30
2018-12-19T11:16:47.377Z,15.03
2018-12-19T11:19:14.787Z,14.00
2018-12-19T11:21:43.504Z,13.70
2018-12-19T11:24:11.424Z,15.30
2018-12-19T11:26:39.084Z,14.53
2018-12-19T11:29:06.504Z,16.17
2018-12-19T11:31:34.033Z,16.77
2018-12-19T11:34:01.470Z,16.23
2018-12-19T11:36:28.964Z,12.57
2018-12-19T11:38:56.381Z,12.77
2018-12-19T11:41:24.524Z,15.00
2018-12-19T11:43:52.213Z,14.97
2018-12-19T11:46:19.612Z,13.63
2018-12-19T11:48:47.425Z,13.23
2018-12-19T11:51:14.813Z,14.53
2018-12-19T11:53:42.236Z,14.93
2018-12-19T11:56:10.080Z,16.17
2018-12-19T11:58:37.931Z,16.33
2018-12-19T12:01:07.923Z,17.53
2018-12-19T12:03:35.956Z,16.70
2018-12-19T12:06:03.719Z,18.27
2018-12-19T12:08:31.195Z,14.60
2018-12-19T12:10:59.049Z,16.57
2018-12-19T12:13:26.464Z,16.33
2018-12-19T12:15:53.902Z,18.43
2018-12-19T12:18:21.336Z,18.77
2018-12-19T12:20:50.940Z,17.60
2018-12-19T12:23:18.361Z,21.37
2018-12-19T12:25:48.368Z,24.07
2018-12-19T12:28:15.785Z,18.73
2018-12-19T12:30:43.208Z,20.47
2018-12-19T12:33:11.024Z,32.47
2018-12-19T12:35:38.788Z,24.00
2018-12-19T12:38:06.217Z,24.70
2018-12-19T12:40:34.056Z,21.03
2018-12-19T12:43:01.448Z,20.93
2018-12-19T12:45:28.860Z,22.57
2018-12-19T12:47:56.285Z,38.03
2018-12-19T12:50:24.659Z,20.83
2018-12-19T12:52:53.026Z,21.27
2018-12-19T12:55:20.558Z,31.73
2018-12-19T12:57:48.106Z,54.60
2018-12-19T13:00:16.568Z,42.77
2018-12-19T13:02:43.991Z,42.03
2018-12-19T13:05:11.440Z,23.20
2018-12-19T13:07:39.265Z,21.33
2018-12-19T13:10:08.451Z,18.63
2018-12-19T13:12:35.877Z,21.37
2018-12-19T13:15:05.764Z,21.47
2018-12-19T13:17:33.189Z,21.93
2018-12-19T13:20:01.150Z,23.00
2018-12-19T13:22:31.282Z,20.37
2018-12-19T13:24:58.972Z,22.87
2018-12-19T13:27:26.420Z,16.70
2018-12-19T13:29:57.312Z,17.63
2018-12-19T13:32:24.737Z,16.73
2018-12-19T13:34:52.167Z,15.47
2018-12-19T13:37:20.028Z,20.20
2018-12-19T13:39:48.096Z,17.50
2018-12-19T13:42:15.925Z,15.23
2018-12-19T13:44:43.340Z,17.97
2018-12-19T13:47:10.767Z,20.47
2018-12-19T13:49:38.207Z,21.27
2018-12-19T13:52:05.639Z,18.07
2018-12-19T13:54:33.056Z,20.33
2018-12-19T13:57:00.478Z,20.17
2018-12-19T13:59:27.909Z,16.33
2018-12-19T14:01:55.449Z,20.70
2018-12-19T14:04:22.916Z,20.37
2018-12-19T14:06:50.404Z,19.77
2018-12-19T14:09:17.904Z,20.70
2018-12-19T14:11:45.400Z,22.53
2018-12-19T14:14:12.820Z,22.77
2018-12-19T14:16:40.793Z,24.03
2018-12-19T14:19:08.660Z,21.53
2018-12-19T14:21:36.083Z,21.93
2018-12-19T14:24:04.367Z,21.80
2018-12-19T14:26:33.230Z,20.80
2018-12-19T14:29:00.651Z,21.80
2018-12-19T14:31:28.119Z,24.33
2018-12-19T14:33:55.534Z,22.50
2018-12-19T14:36:22.954Z,22.43
2018-12-19T14:38:50.619Z,26.93
2018-12-19T14:41:18.612Z,33.33
2018-12-19T14:43:46.040Z,33.27
2018-12-19T14:46:13.579Z,35.03
2018-12-19T14:48:40.996Z,45.03
2018-12-19T14:51:08.872Z,39.67
2018-12-19T14:53:36.275Z,33.40
2018-12-19T14:56:03.764Z,34.83
2018-12-19T14:58:31.574Z,28.97
2018-12-19T15:00:59.024Z,34.33
2018-12-19T15:03:26.441Z,37.07
2018-12-19T15:05:53.892Z,37.37
2018-12-19T15:08:21.344Z,34.73
2018-12-19T15:10:49.261Z,34.73
2018-12-19T15:13:16.767Z,30.27
2018-12-19T15:15:46.168Z,28.97
2018-12-19T15:18:13.585Z,27.67
2018-12-19T15:20:41.008Z,28.67
2018-12-19T15:23:08.430Z,29.77
2018-12-19T15:25:35.868Z,29.07
2018-12-19T15:28:03.324Z,30.47
2018-12-19T15:30:31.944Z,32.90
2018-12-19T15:32:59.380Z,30.23
2018-12-19T15:35:26.832Z,36.17
2018-12-19T15:37:54.252Z,34.47
2018-12-19T15:40:21.671Z,31.60
2018-12-19T15:42:49.093Z,34.80
2018-12-19T15:45:17.980Z,37.30
2018-12-19T15:47:46.618Z,34.33
2018-12-19T15:50:15.960Z,29.47
2018-12-19T15:52:44.701Z,30.70
2018-12-19T15:55:12.503Z,32.53
2018-12-19T15:57:39.949Z,31.17
2018-12-19T16:00:10.162Z,30.27
2018-12-19T16:02:37.657Z,30.73
2018-12-19T16:05:05.173Z,38.53
2018-12-19T16:07:32.610Z,31.43
2018-12-19T16:10:00.913Z,33.07
2018-12-19T16:12:28.808Z,36.57
2018-12-19T16:14:56.792Z,35.10
2018-12-19T16:17:24.758Z,31.50
2018-12-19T16:19:52.173Z,35.47
2018-12-19T16:22:19.589Z,33.93
2018-12-19T16:24:47.103Z,35.97
2018-12-19T16:27:14.609Z,31.17
2018-12-19T16:29:43.592Z,31.77
2018-12-19T16:32:11.731Z,34.70
2018-12-19T16:34:40.763Z,33.50
2018-12-19T16:37:08.216Z,34.63
2018-12-19T16:39:35.685Z,32.70
2018-12-19T16:42:03.153Z,34.67
2018-12-19T16:44:30.700Z,39.27
2018-12-19T16:46:58.123Z,38.70
2018-12-19T16:49:25.549Z,32.67
2018-12-19T16:51:52.968Z,41.20
2018-12-19T16:54:20.398Z,29.77
2018-12-19T16:56:47.849Z,33.00
2018-12-19T16:59:15.344Z,33.23
2018-12-19T17:01:42.797Z,35.03
2018-12-19T17:04:10.251Z,34.20
2018-12-19T17:06:37.686Z,31.43
2018-12-19T17:09:06.962Z,44.07
2018-12-19T17:11:34.384Z,43.93
2018-12-19T17:14:01.832Z,55.10
2018-12-19T17:16:29.262Z,83.33
2018-12-19T17:18:56.683Z,59.43
2018-12-19T17:21:24.171Z,55.70
2018-12-19T17:23:51.668Z,67.57
2018-12-19T17:26:19.189Z,59.40
2018-12-19T17:28:46.682Z,49.63
2018-12-19T17:31:14.084Z,52.13
2018-12-19T17:33:41.576Z,64.30
2018-12-19T17:36:09.000Z,54.10
2018-12-19T17:38:36.421Z,58.27
2018-12-19T17:41:05.092Z,47.43
2018-12-19T17:43:32.509Z,48.57
2018-12-19T17:46:00.600Z,49.30
2018-12-19T17:48:28.028Z,42.50
2018-12-19T17:50:55.455Z,45.30
2018-12-19T17:53:25.439Z,40.33
2018-12-19T17:55:52.854Z,44.90
2018-12-19T17:58:20.316Z,51.57
2018-12-19T18:00:47.744Z,51.87
2018-12-19T18:03:16.605Z,53.93
2018-12-19T18:05:44.560Z,48.93
2018-12-19T18:08:11.980Z,64.30
2018-12-19T18:10:40.112Z,60.47
2018-12-19T18:13:08.297Z,45.13
2018-12-19T18:15:36.368Z,45.63
2018-12-19T18:18:03.788Z,46.70
2018-12-19T18:20:31.208Z,52.20
2018-12-19T18:22:58.680Z,62.10
2018-12-19T18:25:26.108Z,63.90
2018-12-19T18:27:53.537Z,60.70
2018-12-19T18:30:20.952Z,52.00
2018-12-19T18:32:48.381Z,50.33
2018-12-19T18:35:19.092Z,62.40
2018-12-19T18:37:46.589Z,48.40
2018-12-19T18:40:14.025Z,62.90
2018-12-19T18:42:41.521Z,67.70
2018-12-19T18:45:11.973Z,70.27
2018-12-19T18:47:38.400Z,70.60
2018-12-19T18:50:08.322Z,83.00
2018-12-19T18:52:36.343Z,67.30
2018-12-19T18:55:06.528Z,72.07
2018-12-19T18:57:34.568Z,58.60
2018-12-19T19:00:01.988Z,64.23
2018-12-19T19:02:29.491Z,60.00
2018-12-19T19:04:57.046Z,53.57
2018-12-19T19:07:24.478Z,62.23
2018-12-19T19:09:51.928Z,54.60
2018-12-19T19:12:19.352Z,55.97
2018-12-19T19:14:46.900Z,51.33
2018-12-19T19:17:14.377Z,49.00
2018-12-19T19:19:41.874Z,52.40
2018-12-19T19:22:09.304Z,50.77
2018-12-19T19:24:36.713Z,45.63
2018-12-19T19:27:04.205Z,48.63
2018-12-19T19:29:31.657Z,48.03
2018-12-19T19:31:59.120Z,49.33
2018-12-19T19:34:26.552Z,55.77
2018-12-19T19:36:54.092Z,45.37
2018-12-19T19:39:21.613Z,48.60
2018-12-19T19:41:49.043Z,47.97
2018-12-19T19:44:16.536Z,44.30
2018-12-19T19:46:45.516Z,41.53
2018-12-19T19:49:13.616Z,36.43
2018-12-19T19:51:41.049Z,30.80
2018-12-19T19:54:08.545Z,31.50
2018-12-19T19:56:35.966Z,29.13
2018-12-19T19:59:03.429Z,35.00
2018-12-19T20:01:30.852Z,31.17
2018-12-19T20:03:58.272Z,27.87
2018-12-19T20:06:25.773Z,33.83
2018-12-19T20:08:53.737Z,32.20
2018-12-19T20:11:21.178Z,30.83
2018-12-19T20:13:48.581Z,42.13
2018-12-19T20:16:16.254Z,42.57
2018-12-19T20:18:43.672Z,37.03
2018-12-19T20:21:11.139Z,36.50
2018-12-19T20:23:38.674Z,37.00
2018-12-19T20:26:06.097Z,41.53
2018-12-19T20:28:34.170Z,37.10
2018-12-19T20:31:01.584Z,33.83
2018-12-19T20:33:29.088Z,53.57
2018-12-19T20:35:56.513Z,46.90
2018-12-19T20:38:23.927Z,53.03
2018-12-19T20:40:51.360Z,48.13
2018-12-19T20:43:19.171Z,47.73
2018-12-19T20:45:46.664Z,52.50
2018-12-19T20:48:14.200Z,56.77
2018-12-19T20:50:41.620Z,52.97
2018-12-19T20:53:09.088Z,50.77
2018-12-19T20:55:36.520Z,52.57
2018-12-19T20:58:04.720Z,66.60
2018-12-19T21:00:34.804Z,61.67
2018-12-19T21:03:02.229Z,66.90
2018-12-19T21:05:30.038Z,73.30
2018-12-19T21:07:57.441Z,71.97
2018-12-19T21:10:24.851Z,76.47
2018-12-19T21:12:52.296Z,77.37
2018-12-19T21:15:20.443Z,75.83
2018-12-19T21:17:53.594Z,83.50
2018-12-19T21:20:21.068Z,103.10
2018-12-19T21:22:49.811Z,77.07
2018-12-19T21:25:17.813Z,71.37
2018-12-19T21:27:45.232Z,81.83
2018-12-19T21:30:12.700Z,88.60
2018-12-19T21:32:40.122Z,78.27
2018-12-19T21:35:07.619Z,80.93
2018-12-19T21:37:37.023Z,81.43
2018-12-19T21:40:05.302Z,81.30
2018-12-19T21:42:32.794Z,62.27
2018-12-19T21:45:00.926Z,107.47
2018-12-19T21:47:28.443Z,96.23
2018-12-19T21:49:57.968Z,117.30
2018-12-19T21:52:25.368Z,122.93
2018-12-19T21:54:52.784Z,137.53
2018-12-19T21:57:20.215Z,64.70
2018-12-19T21:59:48.400Z,79.43
2018-12-19T22:02:15.949Z,79.83
2018-12-19T22:04:43.454Z,58.17
2018-12-19T22:07:11.575Z,48.20
2018-12-19T22:09:38.996Z,70.93
2018-12-19T22:12:06.496Z,59.13
2018-12-19T22:14:34.725Z,70.10
2018-12-19T22:17:08.289Z,67.47
2018-12-19T22:19:35.740Z,47.53
2018-12-19T22:22:03.579Z,52.37
2018-12-19T22:24:31.110Z,55.07
2018-12-19T22:26:58.580Z,49.53
2018-12-19T22:29:26.428Z,50.07
2018-12-19T22:31:54.013Z,42.70
2018-12-19T22:34:21.427Z,67.83
2018-12-19T22:36:48.940Z,51.37
2018-12-19T22:39:18.223Z,52.00
2018-12-19T22:41:46.846Z,113.00
2018-12-19T22:44:14.390Z,48.47
2018-12-19T22:46:44.531Z,71.43
2018-12-19T22:49:18.604Z,45.90
2018-12-19T22:51:46.439Z,50.17
2018-12-19T22:54:13.904Z,51.13
2018-12-19T22:56:41.362Z,41.83
2018-12-19T22:59:11.413Z,38.37
2018-12-19T23:01:45.226Z,45.70
2018-12-19T23:04:13.372Z,47.00
2018-12-19T23:06:40.873Z,71.07
2018-12-19T23:09:08.962Z,62.17
2018-12-19T23:11:36.813Z,43.27
2018-12-19T23:14:04.417Z,50.00
2018-12-19T23:16:31.928Z,46.30
2018-12-19T23:18:59.453Z,55.33
2018-12-19T23:21:26.950Z,47.17
2018-12-19T23:23:54.465Z,42.13
2018-12-19T23:26:22.006Z,45.73
2018-12-19T23:28:51.506Z,45.13
2018-12-19T23:31:19.033Z,42.27
2018-12-19T23:33:46.956Z,42.53
2018-12-19T23:36:14.943Z,43.50
2018-12-19T23:38:42.448Z,43.57
2018-12-19T23:41:10.043Z,45.17
2018-12-19T23:43:37.539Z,38.50
2018-12-19T23:46:04.980Z,41.60
2018-12-19T23:48:32.419Z,35.37
2018-12-19T23:50:59.842Z,44.00
2018-12-19T23:53:30.009Z,46.67
2018-12-19T23:55:57.465Z,44.73
2018-12-19T23:58:25.461Z,48.17
